sensor_id;sensor_type;location;lat;lon;timestamp;P1;durP1;ratioP1;P2;durP2;ratioP2
51248;SDS011;39642;47.556;18.728;2023-03-31T00:01:48;10.75;;;4.10;;
51248;SDS011;39642;47.556;18.728;2023-03-31T00:04:17;10.50;;;4.07;;
51248;SDS011;39642;47.556;18.728;2023-03-31T00:06:43;11.35;;;4.22;;
51248;SDS011;39642;47.556;18.728;2023-03-31T00:09:10;11.35;;;4.10;;
51248;SDS011;39642;47.556;18.728;2023-03-31T00:11:38;9.95;;;3.83;;
51248;SDS011;39642;47.556;18.728;2023-03-31T00:14:05;11.10;;;3.92;;
51248;SDS011;39642;47.556;18.728;2023-03-31T00:16:35;10.65;;;3.80;;
51248;SDS011;39642;47.556;18.728;2023-03-31T00:19:03;10.13;;;3.60;;
51248;SDS011;39642;47.556;18.728;2023-03-31T00:21:29;10.70;;;3.65;;
51248;SDS011;39642;47.556;18.728;2023-03-31T00:24:03;9.95;;;3.50;;
51248;SDS011;39642;47.556;18.728;2023-03-31T00:26:31;11.23;;;3.70;;
51248;SDS011;39642;47.556;18.728;2023-03-31T00:28:58;11.52;;;3.75;;
51248;SDS011;39642;47.556;18.728;2023-03-31T00:31:25;10.48;;;3.72;;
51248;SDS011;39642;47.556;18.728;2023-03-31T00:33:52;10.77;;;3.55;;
51248;SDS011;39642;47.556;18.728;2023-03-31T00:36:19;11.90;;;3.62;;
51248;SDS011;39642;47.556;18.728;2023-03-31T00:38:55;9.10;;;3.58;;
51248;SDS011;39642;47.556;18.728;2023-03-31T00:41:25;10.38;;;3.47;;
51248;SDS011;39642;47.556;18.728;2023-03-31T00:44:07;11.25;;;3.85;;
51248;SDS011;39642;47.556;18.728;2023-03-31T00:49:11;11.30;;;3.60;;
51248;SDS011;39642;47.556;18.728;2023-03-31T00:51:40;11.60;;;4.00;;
51248;SDS011;39642;47.556;18.728;2023-03-31T00:54:08;10.10;;;3.42;;
51248;SDS011;39642;47.556;18.728;2023-03-31T00:56:36;10.30;;;3.83;;
51248;SDS011;39642;47.556;18.728;2023-03-31T00:59:06;9.65;;;3.60;;
51248;SDS011;39642;47.556;18.728;2023-03-31T01:01:35;10.20;;;3.58;;
51248;SDS011;39642;47.556;18.728;2023-03-31T01:04:04;10.30;;;3.62;;
51248;SDS011;39642;47.556;18.728;2023-03-31T01:06:32;9.18;;;3.30;;
51248;SDS011;39642;47.556;18.728;2023-03-31T01:08:58;11.25;;;3.90;;
51248;SDS011;39642;47.556;18.728;2023-03-31T01:11:25;9.57;;;3.20;;
51248;SDS011;39642;47.556;18.728;2023-03-31T01:13:52;12.55;;;3.45;;
51248;SDS011;39642;47.556;18.728;2023-03-31T01:16:20;10.15;;;3.65;;
51248;SDS011;39642;47.556;18.728;2023-03-31T01:18:47;10.48;;;3.47;;
51248;SDS011;39642;47.556;18.728;2023-03-31T01:44:32;9.15;;;3.10;;
51248;SDS011;39642;47.556;18.728;2023-03-31T01:47:09;10.20;;;3.20;;
51248;SDS011;39642;47.556;18.728;2023-03-31T01:49:48;11.27;;;3.58;;
51248;SDS011;39642;47.556;18.728;2023-03-31T01:52:22;9.10;;;3.10;;
51248;SDS011;39642;47.556;18.728;2023-03-31T01:55:01;9.52;;;3.10;;
51248;SDS011;39642;47.556;18.728;2023-03-31T01:57:33;9.45;;;2.87;;
51248;SDS011;39642;47.556;18.728;2023-03-31T02:02:41;10.18;;;3.25;;
51248;SDS011;39642;47.556;18.728;2023-03-31T02:05:14;9.45;;;2.85;;
51248;SDS011;39642;47.556;18.728;2023-03-31T02:07:55;9.88;;;3.30;;
51248;SDS011;39642;47.556;18.728;2023-03-31T02:10:26;9.57;;;3.00;;
51248;SDS011;39642;47.556;18.728;2023-03-31T02:12:55;10.48;;;2.92;;
51248;SDS011;39642;47.556;18.728;2023-03-31T02:15:25;10.70;;;2.87;;
51248;SDS011;39642;47.556;18.728;2023-03-31T02:17:56;8.77;;;2.95;;
51248;SDS011;39642;47.556;18.728;2023-03-31T02:20:24;10.40;;;3.25;;
51248;SDS011;39642;47.556;18.728;2023-03-31T02:22:54;10.18;;;3.22;;
51248;SDS011;39642;47.556;18.728;2023-03-31T02:25:22;8.65;;;3.03;;
51248;SDS011;39642;47.556;18.728;2023-03-31T02:27:54;8.80;;;2.70;;
51248;SDS011;39642;47.556;18.728;2023-03-31T02:30:25;9.95;;;3.00;;
51248;SDS011;39642;47.556;18.728;2023-03-31T02:32:59;9.70;;;3.05;;
51248;SDS011;39642;47.556;18.728;2023-03-31T02:35:25;10.38;;;3.03;;
51248;SDS011;39642;47.556;18.728;2023-03-31T02:37:51;11.32;;;2.72;;
51248;SDS011;39642;47.556;18.728;2023-03-31T02:40:19;9.40;;;2.75;;
51248;SDS011;39642;47.556;18.728;2023-03-31T02:42:47;8.77;;;2.70;;
51248;SDS011;39642;47.556;18.728;2023-03-31T02:48:17;9.32;;;2.58;;
51248;SDS011;39642;47.556;18.728;2023-03-31T02:56:46;8.35;;;2.83;;
51248;SDS011;39642;47.556;18.728;2023-03-31T03:02:17;8.80;;;2.40;;
51248;SDS011;39642;47.556;18.728;2023-03-31T03:07:48;9.35;;;3.00;;
51248;SDS011;39642;47.556;18.728;2023-03-31T03:13:37;8.43;;;2.67;;
51248;SDS011;39642;47.556;18.728;2023-03-31T03:19:01;8.73;;;2.53;;
51248;SDS011;39642;47.556;18.728;2023-03-31T03:21:29;8.50;;;2.50;;
51248;SDS011;39642;47.556;18.728;2023-03-31T03:23:56;9.65;;;2.55;;
51248;SDS011;39642;47.556;18.728;2023-03-31T03:26:22;8.80;;;2.50;;
51248;SDS011;39642;47.556;18.728;2023-03-31T03:28:48;9.65;;;2.87;;
51248;SDS011;39642;47.556;18.728;2023-03-31T03:31:15;8.68;;;2.33;;
51248;SDS011;39642;47.556;18.728;2023-03-31T03:33:42;9.27;;;2.65;;
51248;SDS011;39642;47.556;18.728;2023-03-31T03:36:08;8.38;;;2.40;;
51248;SDS011;39642;47.556;18.728;2023-03-31T03:38:34;8.52;;;2.40;;
51248;SDS011;39642;47.556;18.728;2023-03-31T03:41:01;8.40;;;2.55;;
51248;SDS011;39642;47.556;18.728;2023-03-31T03:43:27;8.48;;;2.47;;
51248;SDS011;39642;47.556;18.728;2023-03-31T03:45:53;8.23;;;2.70;;
51248;SDS011;39642;47.556;18.728;2023-03-31T03:48:19;7.60;;;2.40;;
51248;SDS011;39642;47.556;18.728;2023-03-31T03:50:45;8.50;;;2.60;;
51248;SDS011;39642;47.556;18.728;2023-03-31T03:53:12;8.80;;;2.60;;
51248;SDS011;39642;47.556;18.728;2023-03-31T03:55:38;9.25;;;2.47;;
51248;SDS011;39642;47.556;18.728;2023-03-31T03:58:04;8.00;;;2.40;;
51248;SDS011;39642;47.556;18.728;2023-03-31T04:00:30;8.98;;;2.45;;
51248;SDS011;39642;47.556;18.728;2023-03-31T04:02:56;8.85;;;2.55;;
51248;SDS011;39642;47.556;18.728;2023-03-31T04:05:22;7.82;;;2.42;;
51248;SDS011;39642;47.556;18.728;2023-03-31T04:07:48;9.00;;;2.60;;
51248;SDS011;39642;47.556;18.728;2023-03-31T04:10:14;7.15;;;2.37;;
51248;SDS011;39642;47.556;18.728;2023-03-31T04:12:40;7.62;;;2.12;;
51248;SDS011;39642;47.556;18.728;2023-03-31T04:15:06;8.25;;;2.35;;
51248;SDS011;39642;47.556;18.728;2023-03-31T04:17:32;7.18;;;2.22;;
51248;SDS011;39642;47.556;18.728;2023-03-31T04:19:59;7.65;;;2.40;;
51248;SDS011;39642;47.556;18.728;2023-03-31T04:22:28;8.10;;;2.62;;
51248;SDS011;39642;47.556;18.728;2023-03-31T04:25:00;7.85;;;2.42;;
51248;SDS011;39642;47.556;18.728;2023-03-31T04:27:28;7.82;;;2.45;;
51248;SDS011;39642;47.556;18.728;2023-03-31T04:29:55;7.85;;;2.30;;
51248;SDS011;39642;47.556;18.728;2023-03-31T04:32:21;8.25;;;2.72;;
51248;SDS011;39642;47.556;18.728;2023-03-31T04:34:48;8.60;;;2.47;;
51248;SDS011;39642;47.556;18.728;2023-03-31T04:37:15;9.05;;;2.50;;
51248;SDS011;39642;47.556;18.728;2023-03-31T04:39:42;8.90;;;2.50;;
51248;SDS011;39642;47.556;18.728;2023-03-31T04:42:11;10.07;;;2.58;;
51248;SDS011;39642;47.556;18.728;2023-03-31T04:44:37;8.27;;;2.40;;
51248;SDS011;39642;47.556;18.728;2023-03-31T04:47:03;7.40;;;2.50;;
51248;SDS011;39642;47.556;18.728;2023-03-31T04:49:31;9.30;;;2.53;;
51248;SDS011;39642;47.556;18.728;2023-03-31T04:51:58;8.90;;;2.40;;
51248;SDS011;39642;47.556;18.728;2023-03-31T04:54:23;15.98;;;3.00;;
51248;SDS011;39642;47.556;18.728;2023-03-31T04:56:49;10.25;;;2.90;;
51248;SDS011;39642;47.556;18.728;2023-03-31T04:59:15;10.27;;;3.25;;
51248;SDS011;39642;47.556;18.728;2023-03-31T05:01:41;11.20;;;3.28;;
51248;SDS011;39642;47.556;18.728;2023-03-31T05:04:09;8.40;;;2.55;;
51248;SDS011;39642;47.556;18.728;2023-03-31T05:06:35;12.00;;;3.17;;
51248;SDS011;39642;47.556;18.728;2023-03-31T05:09:01;10.73;;;3.45;;
51248;SDS011;39642;47.556;18.728;2023-03-31T05:11:27;13.10;;;4.45;;
51248;SDS011;39642;47.556;18.728;2023-03-31T05:13:53;19.90;;;6.82;;
51248;SDS011;39642;47.556;18.728;2023-03-31T05:16:19;15.68;;;5.70;;
51248;SDS011;39642;47.556;18.728;2023-03-31T05:18:45;15.68;;;4.05;;
51248;SDS011;39642;47.556;18.728;2023-03-31T05:21:13;26.00;;;5.90;;
51248;SDS011;39642;47.556;18.728;2023-03-31T05:23:41;26.17;;;7.50;;
51248;SDS011;39642;47.556;18.728;2023-03-31T05:26:07;25.17;;;8.90;;
51248;SDS011;39642;47.556;18.728;2023-03-31T05:28:34;31.42;;;8.70;;
51248;SDS011;39642;47.556;18.728;2023-03-31T05:31:00;24.42;;;6.43;;
51248;SDS011;39642;47.556;18.728;2023-03-31T05:33:27;35.95;;;7.78;;
51248;SDS011;39642;47.556;18.728;2023-03-31T05:35:54;12.45;;;4.10;;
51248;SDS011;39642;47.556;18.728;2023-03-31T05:38:20;15.10;;;3.65;;
51248;SDS011;39642;47.556;18.728;2023-03-31T05:40:47;12.00;;;4.60;;
51248;SDS011;39642;47.556;18.728;2023-03-31T05:43:13;11.45;;;3.80;;
51248;SDS011;39642;47.556;18.728;2023-03-31T05:45:39;20.37;;;4.72;;
51248;SDS011;39642;47.556;18.728;2023-03-31T05:48:05;19.27;;;4.53;;
51248;SDS011;39642;47.556;18.728;2023-03-31T05:50:31;15.73;;;4.00;;
51248;SDS011;39642;47.556;18.728;2023-03-31T05:52:57;17.55;;;4.35;;
51248;SDS011;39642;47.556;18.728;2023-03-31T05:55:24;17.55;;;4.50;;
51248;SDS011;39642;47.556;18.728;2023-03-31T05:57:50;18.58;;;3.90;;
51248;SDS011;39642;47.556;18.728;2023-03-31T06:00:16;18.73;;;4.30;;
51248;SDS011;39642;47.556;18.728;2023-03-31T06:02:42;23.70;;;4.30;;
51248;SDS011;39642;47.556;18.728;2023-03-31T06:05:08;16.25;;;4.40;;
51248;SDS011;39642;47.556;18.728;2023-03-31T06:07:34;19.77;;;4.28;;
51248;SDS011;39642;47.556;18.728;2023-03-31T06:10:00;25.80;;;5.22;;
51248;SDS011;39642;47.556;18.728;2023-03-31T06:12:26;22.45;;;4.87;;
51248;SDS011;39642;47.556;18.728;2023-03-31T06:14:52;23.33;;;4.87;;
51248;SDS011;39642;47.556;18.728;2023-03-31T06:17:18;19.52;;;4.60;;
51248;SDS011;39642;47.556;18.728;2023-03-31T06:19:44;16.42;;;3.72;;
51248;SDS011;39642;47.556;18.728;2023-03-31T06:22:09;17.48;;;3.80;;
51248;SDS011;39642;47.556;18.728;2023-03-31T06:24:35;25.10;;;5.20;;
51248;SDS011;39642;47.556;18.728;2023-03-31T06:27:01;16.77;;;4.40;;
51248;SDS011;39642;47.556;18.728;2023-03-31T06:29:28;12.55;;;3.33;;
51248;SDS011;39642;47.556;18.728;2023-03-31T06:31:54;16.95;;;4.10;;
51248;SDS011;39642;47.556;18.728;2023-03-31T06:34:20;18.92;;;3.70;;
51248;SDS011;39642;47.556;18.728;2023-03-31T06:36:46;22.02;;;4.35;;
51248;SDS011;39642;47.556;18.728;2023-03-31T06:39:12;20.80;;;4.18;;
51248;SDS011;39642;47.556;18.728;2023-03-31T06:41:38;19.77;;;4.50;;
51248;SDS011;39642;47.556;18.728;2023-03-31T06:44:04;21.75;;;4.80;;
51248;SDS011;39642;47.556;18.728;2023-03-31T06:46:30;16.20;;;3.97;;
51248;SDS011;39642;47.556;18.728;2023-03-31T06:48:56;14.80;;;3.53;;
51248;SDS011;39642;47.556;18.728;2023-03-31T06:51:21;14.55;;;3.80;;
51248;SDS011;39642;47.556;18.728;2023-03-31T06:53:47;21.77;;;4.45;;
51248;SDS011;39642;47.556;18.728;2023-03-31T06:56:13;24.63;;;4.90;;
51248;SDS011;39642;47.556;18.728;2023-03-31T06:58:39;17.27;;;3.92;;
51248;SDS011;39642;47.556;18.728;2023-03-31T07:01:05;21.52;;;4.12;;
51248;SDS011;39642;47.556;18.728;2023-03-31T07:03:31;18.05;;;3.55;;
51248;SDS011;39642;47.556;18.728;2023-03-31T07:05:58;22.17;;;4.20;;
51248;SDS011;39642;47.556;18.728;2023-03-31T07:08:24;24.20;;;5.80;;
51248;SDS011;39642;47.556;18.728;2023-03-31T07:10:54;28.35;;;6.78;;
51248;SDS011;39642;47.556;18.728;2023-03-31T07:13:22;20.20;;;4.43;;
51248;SDS011;39642;47.556;18.728;2023-03-31T07:15:49;28.30;;;5.82;;
51248;SDS011;39642;47.556;18.728;2023-03-31T07:18:16;20.67;;;7.12;;
51248;SDS011;39642;47.556;18.728;2023-03-31T07:20:47;23.67;;;9.77;;
51248;SDS011;39642;47.556;18.728;2023-03-31T07:23:15;39.67;;;15.93;;
51248;SDS011;39642;47.556;18.728;2023-03-31T07:25:41;33.28;;;14.50;;
51248;SDS011;39642;47.556;18.728;2023-03-31T07:28:07;28.77;;;13.45;;
51248;SDS011;39642;47.556;18.728;2023-03-31T07:30:33;41.17;;;12.80;;
51248;SDS011;39642;47.556;18.728;2023-03-31T07:32:59;26.62;;;11.93;;
51248;SDS011;39642;47.556;18.728;2023-03-31T07:35:26;31.98;;;10.35;;
51248;SDS011;39642;47.556;18.728;2023-03-31T07:37:52;32.53;;;9.68;;
51248;SDS011;39642;47.556;18.728;2023-03-31T07:40:20;21.35;;;9.18;;
51248;SDS011;39642;47.556;18.728;2023-03-31T07:42:47;20.33;;;6.43;;
51248;SDS011;39642;47.556;18.728;2023-03-31T07:45:14;23.23;;;5.57;;
51248;SDS011;39642;47.556;18.728;2023-03-31T07:47:41;21.75;;;4.82;;
51248;SDS011;39642;47.556;18.728;2023-03-31T07:50:09;28.00;;;6.75;;
51248;SDS011;39642;47.556;18.728;2023-03-31T07:52:35;24.37;;;6.32;;
51248;SDS011;39642;47.556;18.728;2023-03-31T07:55:01;23.70;;;5.78;;
51248;SDS011;39642;47.556;18.728;2023-03-31T07:57:28;16.90;;;5.68;;
51248;SDS011;39642;47.556;18.728;2023-03-31T07:59:54;20.55;;;5.53;;
51248;SDS011;39642;47.556;18.728;2023-03-31T08:02:20;15.18;;;3.90;;
51248;SDS011;39642;47.556;18.728;2023-03-31T08:04:46;14.90;;;4.05;;
51248;SDS011;39642;47.556;18.728;2023-03-31T08:07:12;17.12;;;4.68;;
51248;SDS011;39642;47.556;18.728;2023-03-31T08:09:39;18.70;;;4.65;;
51248;SDS011;39642;47.556;18.728;2023-03-31T08:12:07;20.67;;;4.90;;
51248;SDS011;39642;47.556;18.728;2023-03-31T08:14:33;17.12;;;4.30;;
51248;SDS011;39642;47.556;18.728;2023-03-31T08:16:59;12.45;;;3.50;;
51248;SDS011;39642;47.556;18.728;2023-03-31T08:19:25;19.58;;;3.87;;
51248;SDS011;39642;47.556;18.728;2023-03-31T08:21:52;11.12;;;3.60;;
51248;SDS011;39642;47.556;18.728;2023-03-31T08:24:18;16.85;;;4.12;;
51248;SDS011;39642;47.556;18.728;2023-03-31T08:26:44;11.98;;;3.87;;
51248;SDS011;39642;47.556;18.728;2023-03-31T08:29:10;13.07;;;3.92;;
51248;SDS011;39642;47.556;18.728;2023-03-31T08:31:36;12.60;;;3.78;;
51248;SDS011;39642;47.556;18.728;2023-03-31T08:34:02;13.02;;;3.40;;
51248;SDS011;39642;47.556;18.728;2023-03-31T08:36:29;14.93;;;3.20;;
51248;SDS011;39642;47.556;18.728;2023-03-31T08:38:54;14.10;;;3.35;;
51248;SDS011;39642;47.556;18.728;2023-03-31T08:43:49;11.77;;;3.35;;
51248;SDS011;39642;47.556;18.728;2023-03-31T08:46:16;20.15;;;3.85;;
51248;SDS011;39642;47.556;18.728;2023-03-31T08:48:44;13.18;;;3.50;;
51248;SDS011;39642;47.556;18.728;2023-03-31T08:51:17;21.48;;;3.62;;
51248;SDS011;39642;47.556;18.728;2023-03-31T08:53:59;28.38;;;4.35;;
51248;SDS011;39642;47.556;18.728;2023-03-31T08:56:28;28.87;;;4.70;;
51248;SDS011;39642;47.556;18.728;2023-03-31T08:58:59;26.10;;;4.07;;
51248;SDS011;39642;47.556;18.728;2023-03-31T09:09:27;17.92;;;4.03;;
51248;SDS011;39642;47.556;18.728;2023-03-31T09:12:20;11.38;;;3.08;;
51248;SDS011;39642;47.556;18.728;2023-03-31T09:15:00;15.70;;;3.05;;
51248;SDS011;39642;47.556;18.728;2023-03-31T09:17:30;11.77;;;2.78;;
51248;SDS011;39642;47.556;18.728;2023-03-31T09:20:45;16.58;;;2.95;;
51248;SDS011;39642;47.556;18.728;2023-03-31T09:23:00;12.30;;;2.70;;
51248;SDS011;39642;47.556;18.728;2023-03-31T09:25:37;16.60;;;3.20;;
51248;SDS011;39642;47.556;18.728;2023-03-31T09:28:13;12.55;;;2.65;;
51248;SDS011;39642;47.556;18.728;2023-03-31T09:30:45;14.68;;;3.17;;
51248;SDS011;39642;47.556;18.728;2023-03-31T09:33:16;10.77;;;2.90;;
51248;SDS011;39642;47.556;18.728;2023-03-31T09:35:59;24.90;;;3.45;;
51248;SDS011;39642;47.556;18.728;2023-03-31T09:38:26;17.85;;;2.87;;
51248;SDS011;39642;47.556;18.728;2023-03-31T09:40:55;21.42;;;3.35;;
51248;SDS011;39642;47.556;18.728;2023-03-31T09:43:26;19.30;;;3.22;;
51248;SDS011;39642;47.556;18.728;2023-03-31T09:45:55;11.25;;;2.75;;
51248;SDS011;39642;47.556;18.728;2023-03-31T09:48:25;15.15;;;3.47;;
51248;SDS011;39642;47.556;18.728;2023-03-31T09:51:00;17.00;;;2.70;;
51248;SDS011;39642;47.556;18.728;2023-03-31T09:56:00;22.62;;;3.60;;
51248;SDS011;39642;47.556;18.728;2023-03-31T09:58:28;20.10;;;3.22;;
51248;SDS011;39642;47.556;18.728;2023-03-31T10:03:40;23.30;;;3.28;;
51248;SDS011;39642;47.556;18.728;2023-03-31T10:06:19;23.67;;;3.87;;
51248;SDS011;39642;47.556;18.728;2023-03-31T10:11:15;11.12;;;3.25;;
51248;SDS011;39642;47.556;18.728;2023-03-31T10:13:46;14.93;;;3.10;;
51248;SDS011;39642;47.556;18.728;2023-03-31T10:16:14;13.02;;;3.00;;
51248;SDS011;39642;47.556;18.728;2023-03-31T10:21:17;13.82;;;3.15;;
51248;SDS011;39642;47.556;18.728;2023-03-31T10:24:01;11.93;;;3.10;;
51248;SDS011;39642;47.556;18.728;2023-03-31T10:26:33;15.60;;;2.87;;
51248;SDS011;39642;47.556;18.728;2023-03-31T10:28:59;13.88;;;2.90;;
51248;SDS011;39642;47.556;18.728;2023-03-31T10:31:26;11.45;;;2.92;;
51248;SDS011;39642;47.556;18.728;2023-03-31T10:34:04;11.65;;;2.80;;
51248;SDS011;39642;47.556;18.728;2023-03-31T10:36:32;15.77;;;2.85;;
51248;SDS011;39642;47.556;18.728;2023-03-31T10:38:59;20.08;;;3.53;;
51248;SDS011;39642;47.556;18.728;2023-03-31T10:41:31;21.92;;;3.67;;
51248;SDS011;39642;47.556;18.728;2023-03-31T10:43:58;16.80;;;3.20;;
51248;SDS011;39642;47.556;18.728;2023-03-31T10:49:23;21.50;;;4.50;;
51248;SDS011;39642;47.556;18.728;2023-03-31T10:51:55;23.40;;;4.15;;
51248;SDS011;39642;47.556;18.728;2023-03-31T10:54:23;25.62;;;4.05;;
51248;SDS011;39642;47.556;18.728;2023-03-31T10:56:50;21.87;;;3.60;;
51248;SDS011;39642;47.556;18.728;2023-03-31T11:05:04;28.60;;;4.20;;
51248;SDS011;39642;47.556;18.728;2023-03-31T11:33:36;25.88;;;3.95;;
51248;SDS011;39642;47.556;18.728;2023-03-31T11:38:58;40.63;;;5.10;;
51248;SDS011;39642;47.556;18.728;2023-03-31T11:41:40;29.33;;;3.65;;
51248;SDS011;39642;47.556;18.728;2023-03-31T11:44:12;29.52;;;4.20;;
51248;SDS011;39642;47.556;18.728;2023-03-31T11:46:47;25.45;;;3.50;;
51248;SDS011;39642;47.556;18.728;2023-03-31T11:54:17;18.48;;;3.30;;
51248;SDS011;39642;47.556;18.728;2023-03-31T11:56:49;18.33;;;3.75;;
51248;SDS011;39642;47.556;18.728;2023-03-31T11:59:17;17.80;;;2.58;;
51248;SDS011;39642;47.556;18.728;2023-03-31T12:01:47;19.20;;;3.65;;
51248;SDS011;39642;47.556;18.728;2023-03-31T12:10:06;16.17;;;2.80;;
51248;SDS011;39642;47.556;18.728;2023-03-31T12:12:41;11.07;;;2.42;;
51248;SDS011;39642;47.556;18.728;2023-03-31T12:15:18;14.43;;;2.80;;
51248;SDS011;39642;47.556;18.728;2023-03-31T12:20:50;41.20;;;3.90;;
51248;SDS011;39642;47.556;18.728;2023-03-31T12:23:21;20.23;;;3.33;;
51248;SDS011;39642;47.556;18.728;2023-03-31T12:25:56;16.73;;;2.67;;
51248;SDS011;39642;47.556;18.728;2023-03-31T12:28:42;13.27;;;3.22;;
51248;SDS011;39642;47.556;18.728;2023-03-31T12:31:11;16.70;;;3.00;;
51248;SDS011;39642;47.556;18.728;2023-03-31T12:33:45;19.10;;;2.70;;
51248;SDS011;39642;47.556;18.728;2023-03-31T12:38:47;30.77;;;4.00;;
51248;SDS011;39642;47.556;18.728;2023-03-31T12:47:54;19.12;;;3.25;;
51248;SDS011;39642;47.556;18.728;2023-03-31T12:52:43;36.10;;;3.85;;
51248;SDS011;39642;47.556;18.728;2023-03-31T12:58:31;23.17;;;3.20;;
51248;SDS011;39642;47.556;18.728;2023-03-31T13:03:36;18.73;;;3.15;;
51248;SDS011;39642;47.556;18.728;2023-03-31T13:06:07;18.40;;;2.72;;
51248;SDS011;39642;47.556;18.728;2023-03-31T13:11:22;21.15;;;3.10;;
51248;SDS011;39642;47.556;18.728;2023-03-31T13:14:03;32.70;;;3.97;;
51248;SDS011;39642;47.556;18.728;2023-03-31T13:16:51;331.67;;;19.15;;
51248;SDS011;39642;47.556;18.728;2023-03-31T13:19:29;73.05;;;7.22;;
51248;SDS011;39642;47.556;18.728;2023-03-31T13:21:58;38.08;;;4.70;;
51248;SDS011;39642;47.556;18.728;2023-03-31T13:24:26;56.85;;;4.65;;
51248;SDS011;39642;47.556;18.728;2023-03-31T13:26:54;35.22;;;4.43;;
51248;SDS011;39642;47.556;18.728;2023-03-31T13:29:42;57.53;;;4.93;;
51248;SDS011;39642;47.556;18.728;2023-03-31T13:32:19;24.80;;;4.10;;
51248;SDS011;39642;47.556;18.728;2023-03-31T13:34:51;42.30;;;4.10;;
51248;SDS011;39642;47.556;18.728;2023-03-31T13:46:26;31.23;;;3.85;;
51248;SDS011;39642;47.556;18.728;2023-03-31T13:49:26;22.50;;;3.92;;
51248;SDS011;39642;47.556;18.728;2023-03-31T13:52:04;27.73;;;3.53;;
51248;SDS011;39642;47.556;18.728;2023-03-31T14:00:13;24.45;;;3.75;;
51248;SDS011;39642;47.556;18.728;2023-03-31T14:03:25;19.63;;;3.70;;
51248;SDS011;39642;47.556;18.728;2023-03-31T14:06:01;23.58;;;3.40;;
51248;SDS011;39642;47.556;18.728;2023-03-31T14:11:30;16.92;;;3.83;;
51248;SDS011;39642;47.556;18.728;2023-03-31T14:14:17;31.52;;;3.90;;
51248;SDS011;39642;47.556;18.728;2023-03-31T14:16:44;19.60;;;3.30;;
51248;SDS011;39642;47.556;18.728;2023-03-31T14:21:50;23.95;;;3.20;;
51248;SDS011;39642;47.556;18.728;2023-03-31T14:24:32;23.20;;;3.60;;
51248;SDS011;39642;47.556;18.728;2023-03-31T14:32:34;21.05;;;3.72;;
51248;SDS011;39642;47.556;18.728;2023-03-31T14:35:17;21.42;;;3.58;;
51248;SDS011;39642;47.556;18.728;2023-03-31T14:38:16;19.98;;;3.33;;
51248;SDS011;39642;47.556;18.728;2023-03-31T14:40:46;17.85;;;3.35;;
51248;SDS011;39642;47.556;18.728;2023-03-31T14:43:18;21.10;;;3.35;;
51248;SDS011;39642;47.556;18.728;2023-03-31T14:45:47;24.27;;;3.20;;
51248;SDS011;39642;47.556;18.728;2023-03-31T14:48:22;18.02;;;3.45;;
51248;SDS011;39642;47.556;18.728;2023-03-31T14:50:48;17.48;;;3.30;;
51248;SDS011;39642;47.556;18.728;2023-03-31T14:53:14;18.70;;;3.25;;
51248;SDS011;39642;47.556;18.728;2023-03-31T14:55:48;15.77;;;3.15;;
51248;SDS011;39642;47.556;18.728;2023-03-31T14:58:37;17.95;;;3.60;;
51248;SDS011;39642;47.556;18.728;2023-03-31T15:01:07;18.90;;;3.40;;
51248;SDS011;39642;47.556;18.728;2023-03-31T15:03:35;26.33;;;3.67;;
51248;SDS011;39642;47.556;18.728;2023-03-31T15:06:06;15.38;;;3.60;;
51248;SDS011;39642;47.556;18.728;2023-03-31T15:08:32;19.30;;;3.65;;
51248;SDS011;39642;47.556;18.728;2023-03-31T15:11:02;17.02;;;2.90;;
51248;SDS011;39642;47.556;18.728;2023-03-31T15:13:33;18.12;;;3.40;;
51248;SDS011;39642;47.556;18.728;2023-03-31T15:19:16;12.75;;;3.00;;
51248;SDS011;39642;47.556;18.728;2023-03-31T15:21:44;14.07;;;2.70;;
51248;SDS011;39642;47.556;18.728;2023-03-31T15:24:11;14.23;;;3.37;;
51248;SDS011;39642;47.556;18.728;2023-03-31T15:29:21;17.20;;;3.42;;
51248;SDS011;39642;47.556;18.728;2023-03-31T15:31:55;13.38;;;3.00;;
51248;SDS011;39642;47.556;18.728;2023-03-31T15:34:28;15.70;;;3.03;;
51248;SDS011;39642;47.556;18.728;2023-03-31T15:36:57;15.77;;;3.17;;
51248;SDS011;39642;47.556;18.728;2023-03-31T15:39:26;13.48;;;3.08;;
51248;SDS011;39642;47.556;18.728;2023-03-31T15:41:55;13.15;;;3.08;;
51248;SDS011;39642;47.556;18.728;2023-03-31T15:44:27;12.75;;;3.12;;
51248;SDS011;39642;47.556;18.728;2023-03-31T15:46:57;12.57;;;2.78;;
51248;SDS011;39642;47.556;18.728;2023-03-31T15:49:25;10.85;;;2.70;;
51248;SDS011;39642;47.556;18.728;2023-03-31T15:51:53;14.23;;;3.05;;
51248;SDS011;39642;47.556;18.728;2023-03-31T15:57:05;13.30;;;3.10;;
51248;SDS011;39642;47.556;18.728;2023-03-31T15:59:45;13.27;;;3.33;;
51248;SDS011;39642;47.556;18.728;2023-03-31T16:02:15;11.15;;;2.92;;
51248;SDS011;39642;47.556;18.728;2023-03-31T16:04:46;15.40;;;3.45;;
51248;SDS011;39642;47.556;18.728;2023-03-31T16:07:20;11.55;;;2.87;;
51248;SDS011;39642;47.556;18.728;2023-03-31T16:12:29;11.63;;;2.75;;
51248;SDS011;39642;47.556;18.728;2023-03-31T16:15:13;13.88;;;3.28;;
51248;SDS011;39642;47.556;18.728;2023-03-31T16:20:39;14.75;;;3.20;;
51248;SDS011;39642;47.556;18.728;2023-03-31T16:23:13;11.30;;;3.10;;
51248;SDS011;39642;47.556;18.728;2023-03-31T16:25:43;10.10;;;3.00;;
51248;SDS011;39642;47.556;18.728;2023-03-31T16:28:20;10.82;;;2.80;;
51248;SDS011;39642;47.556;18.728;2023-03-31T16:30:49;11.68;;;3.10;;
51248;SDS011;39642;47.556;18.728;2023-03-31T16:33:16;11.65;;;3.08;;
51248;SDS011;39642;47.556;18.728;2023-03-31T16:35:45;13.88;;;3.17;;
51248;SDS011;39642;47.556;18.728;2023-03-31T16:38:17;11.70;;;2.72;;
51248;SDS011;39642;47.556;18.728;2023-03-31T16:40:46;10.13;;;2.80;;
51248;SDS011;39642;47.556;18.728;2023-03-31T16:43:22;10.50;;;2.90;;
51248;SDS011;39642;47.556;18.728;2023-03-31T16:45:53;12.57;;;3.05;;
51248;SDS011;39642;47.556;18.728;2023-03-31T16:48:21;10.15;;;2.67;;
51248;SDS011;39642;47.556;18.728;2023-03-31T16:50:49;11.57;;;2.55;;
51248;SDS011;39642;47.556;18.728;2023-03-31T16:53:18;9.40;;;2.80;;
51248;SDS011;39642;47.556;18.728;2023-03-31T16:55:47;11.48;;;2.80;;
51248;SDS011;39642;47.556;18.728;2023-03-31T16:58:13;10.50;;;2.67;;
51248;SDS011;39642;47.556;18.728;2023-03-31T17:00:39;10.18;;;2.70;;
51248;SDS011;39642;47.556;18.728;2023-03-31T17:03:06;12.05;;;2.85;;
51248;SDS011;39642;47.556;18.728;2023-03-31T17:05:38;12.32;;;2.80;;
51248;SDS011;39642;47.556;18.728;2023-03-31T17:08:05;9.80;;;2.83;;
51248;SDS011;39642;47.556;18.728;2023-03-31T17:10:36;10.02;;;2.65;;
51248;SDS011;39642;47.556;18.728;2023-03-31T17:13:03;10.68;;;2.55;;
51248;SDS011;39642;47.556;18.728;2023-03-31T17:15:30;11.80;;;2.80;;
51248;SDS011;39642;47.556;18.728;2023-03-31T17:17:56;11.05;;;2.58;;
51248;SDS011;39642;47.556;18.728;2023-03-31T17:20:23;10.68;;;2.72;;
51248;SDS011;39642;47.556;18.728;2023-03-31T17:22:50;10.25;;;2.60;;
51248;SDS011;39642;47.556;18.728;2023-03-31T17:25:17;12.00;;;3.00;;
51248;SDS011;39642;47.556;18.728;2023-03-31T17:27:43;10.80;;;2.62;;
51248;SDS011;39642;47.556;18.728;2023-03-31T17:30:10;10.13;;;2.80;;
51248;SDS011;39642;47.556;18.728;2023-03-31T17:32:37;11.07;;;2.90;;
51248;SDS011;39642;47.556;18.728;2023-03-31T17:35:03;10.10;;;2.80;;
51248;SDS011;39642;47.556;18.728;2023-03-31T17:37:29;9.68;;;2.70;;
51248;SDS011;39642;47.556;18.728;2023-03-31T17:39:56;8.82;;;2.40;;